Almena, Wisconsin
Current Conditions -  °F | °C
As of 9:35 AM on Friday 28 Nov 2014 (Local Time) from KUBE Reporting Station
Light Snow Light Snow  
Wind Chill:   Ceiling: 2500
Heat Index: 12°   Visibility: 5mi
Dew Point:   Wind: 8mph
Humidity: 85%   Direction: 130°SE
Pressure: 30.01"   Gusts: NA
Location:  45.42°N, 92.03°W
Report Text: KUBE 281535Z AUTO 13007KT 5SM -SN OVC025 M11/M13 A3001 RMK AO2
Loading
Personal Weather Stations






























Interactive Weather Map New forecast layout! Learn more

10-Day Weather Forecast

Advertisements
Track Severe Weather on mobile